sensor_id;sensor_type;location;lat;lon;timestamp;pressure;altitude;pressure_sealevel;temperature;humidity
71996;BME280;59862;47.732;7.346;2023-09-30T08:19:25;99081.91;;;19.11;100.00
71996;BME280;59862;47.732;7.346;2023-09-30T08:21:53;99085.45;;;19.25;100.00
71996;BME280;59862;47.732;7.346;2023-09-30T08:24:20;99085.73;;;19.32;100.00
71996;BME280;59862;47.732;7.346;2023-09-30T08:26:47;99080.83;;;19.38;100.00
71996;BME280;59862;47.732;7.346;2023-09-30T08:29:15;99079.34;;;19.55;100.00
71996;BME280;59862;47.732;7.346;2023-09-30T08:31:42;99083.18;;;19.63;100.00
71996;BME280;59862;47.732;7.346;2023-09-30T08:34:10;99084.17;;;19.76;100.00
71996;BME280;59862;47.732;7.346;2023-09-30T08:36:37;99081.05;;;19.72;100.00
71996;BME280;59862;47.732;7.346;2023-09-30T08:39:04;99093.20;;;19.70;100.00
71996;BME280;59862;47.732;7.346;2023-09-30T08:41:33;99105.34;;;19.74;100.00
71996;BME280;59862;47.732;7.346;2023-09-30T08:44:03;99108.80;;;19.72;100.00
71996;BME280;59862;47.732;7.346;2023-09-30T08:46:34;99109.96;;;19.66;100.00
71996;BME280;59862;47.732;7.346;2023-09-30T08:49:03;99104.84;;;19.68;100.00
71996;BME280;59862;47.732;7.346;2023-09-30T08:51:34;99099.74;;;19.62;100.00
71996;BME280;59862;47.732;7.346;2023-09-30T08:54:03;99098.75;;;19.72;100.00
71996;BME280;59862;47.732;7.346;2023-09-30T08:56:32;99100.56;;;19.91;100.00
71996;BME280;59862;47.732;7.346;2023-09-30T08:59:02;99098.42;;;20.00;100.00
71996;BME280;59862;47.732;7.346;2023-09-30T09:01:31;99096.02;;;20.01;100.00
71996;BME280;59862;47.732;7.346;2023-09-30T09:03:59;99102.16;;;20.12;100.00
71996;BME280;59862;47.732;7.346;2023-09-30T09:06:29;99094.05;;;20.21;100.00
71996;BME280;59862;47.732;7.346;2023-09-30T09:09:12;99092.52;;;20.47;100.00
71996;BME280;59862;47.732;7.346;2023-09-30T09:11:27;99086.03;;;20.48;100.00
71996;BME280;59862;47.732;7.346;2023-09-30T09:13:54;99085.70;;;20.78;100.00
71996;BME280;59862;47.732;7.346;2023-09-30T09:16:26;99085.97;;;21.10;100.00
71996;BME280;59862;47.732;7.346;2023-09-30T09:18:54;99072.95;;;21.22;100.00
71996;BME280;59862;47.732;7.346;2023-09-30T09:21:23;99065.53;;;21.92;100.00
71996;BME280;59862;47.732;7.346;2023-09-30T09:23:54;99063.48;;;22.26;100.00
71996;BME280;59862;47.732;7.346;2023-09-30T09:26:28;99054.44;;;21.96;100.00
71996;BME280;59862;47.732;7.346;2023-09-30T09:29:02;99045.23;;;22.59;100.00
71996;BME280;59862;47.732;7.346;2023-09-30T09:31:35;99051.24;;;23.02;100.00
71996;BME280;59862;47.732;7.346;2023-09-30T09:34:16;99043.33;;;23.26;100.00
71996;BME280;59862;47.732;7.346;2023-09-30T09:36:43;99044.79;;;23.41;100.00
71996;BME280;59862;47.732;7.346;2023-09-30T09:39:12;99036.19;;;23.74;100.00
71996;BME280;59862;47.732;7.346;2023-09-30T09:41:50;99047.72;;;23.88;100.00
71996;BME280;59862;47.732;7.346;2023-09-30T09:44:20;99058.04;;;23.97;100.00
71996;BME280;59862;47.732;7.346;2023-09-30T09:46:49;99055.27;;;24.21;100.00
71996;BME280;59862;47.732;7.346;2023-09-30T09:49:18;99041.51;;;23.92;100.00
71996;BME280;59862;47.732;7.346;2023-09-30T09:51:47;99031.59;;;24.17;100.00
71996;BME280;59862;47.732;7.346;2023-09-30T09:54:15;99021.97;;;24.76;100.00
71996;BME280;59862;47.732;7.346;2023-09-30T09:56:46;99030.56;;;25.15;100.00
71996;BME280;59862;47.732;7.346;2023-09-30T09:59:15;99028.42;;;25.39;100.00
71996;BME280;59862;47.732;7.346;2023-09-30T10:01:43;99024.34;;;25.03;100.00
71996;BME280;59862;47.732;7.346;2023-09-30T10:04:12;99035.44;;;25.30;100.00
71996;BME280;59862;47.732;7.346;2023-09-30T10:06:44;99031.11;;;25.94;100.00
71996;BME280;59862;47.732;7.346;2023-09-30T10:09:15;99032.36;;;26.08;100.00
71996;BME280;59862;47.732;7.346;2023-09-30T10:11:44;99027.00;;;26.45;98.00
71996;BME280;59862;47.732;7.346;2023-09-30T10:14:29;99027.63;;;26.25;95.60
71996;BME280;59862;47.732;7.346;2023-09-30T10:16:59;99025.53;;;25.45;97.20
71996;BME280;59862;47.732;7.346;2023-09-30T10:19:27;99020.06;;;26.69;92.75
71996;BME280;59862;47.732;7.346;2023-09-30T10:24:50;99018.94;;;26.09;96.98
71996;BME280;59862;47.732;7.346;2023-09-30T10:40:52;99013.84;;;28.26;78.05
71996;BME280;59862;47.732;7.346;2023-09-30T10:43:37;99009.75;;;28.51;71.79
71996;BME280;59862;47.732;7.346;2023-09-30T10:48:53;98991.47;;;27.51;75.32
71996;BME280;59862;47.732;7.346;2023-09-30T10:51:22;99013.31;;;28.39;69.61
71996;BME280;59862;47.732;7.346;2023-09-30T10:53:54;99004.45;;;28.17;69.62
71996;BME280;59862;47.732;7.346;2023-09-30T10:56:32;99003.15;;;28.68;71.56
71996;BME280;59862;47.732;7.346;2023-09-30T10:59:00;99003.41;;;29.24;66.77
71996;BME280;59862;47.732;7.346;2023-09-30T11:01:33;99005.00;;;29.53;60.68
71996;BME280;59862;47.732;7.346;2023-09-30T11:04:03;99015.03;;;29.08;60.10
71996;BME280;59862;47.732;7.346;2023-09-30T11:06:32;99014.95;;;27.56;68.23
71996;BME280;59862;47.732;7.346;2023-09-30T11:09:01;99005.66;;;26.57;71.15
71996;BME280;59862;47.732;7.346;2023-09-30T11:11:35;99006.28;;;25.89;81.14
71996;BME280;59862;47.732;7.346;2023-09-30T11:14:03;99000.36;;;26.50;76.62
71996;BME280;59862;47.732;7.346;2023-09-30T11:16:45;99014.44;;;27.66;79.30
71996;BME280;59862;47.732;7.346;2023-09-30T11:19:13;99017.47;;;28.54;68.86
71996;BME280;59862;47.732;7.346;2023-09-30T11:21:42;99021.09;;;28.98;64.66
71996;BME280;59862;47.732;7.346;2023-09-30T11:24:13;99026.34;;;29.07;61.90
71996;BME280;59862;47.732;7.346;2023-09-30T11:26:41;99027.41;;;28.40;61.92
71996;BME280;59862;47.732;7.346;2023-09-30T11:29:14;99020.50;;;28.40;61.82
71996;BME280;59862;47.732;7.346;2023-09-30T11:31:46;99012.47;;;28.21;58.74
71996;BME280;59862;47.732;7.346;2023-09-30T11:34:16;99009.27;;;27.80;62.44
71996;BME280;59862;47.732;7.346;2023-09-30T11:36:51;99001.20;;;27.19;68.36
71996;BME280;59862;47.732;7.346;2023-09-30T11:39:30;98999.79;;;26.77;72.25
71996;BME280;59862;47.732;7.346;2023-09-30T11:41:56;98992.61;;;26.47;74.72
71996;BME280;59862;47.732;7.346;2023-09-30T11:44:24;98986.67;;;26.60;79.02
71996;BME280;59862;47.732;7.346;2023-09-30T11:47:00;98986.84;;;26.46;75.76
71996;BME280;59862;47.732;7.346;2023-09-30T11:49:31;98993.66;;;25.47;72.99
71996;BME280;59862;47.732;7.346;2023-09-30T11:52:11;98984.25;;;25.24;80.35
71996;BME280;59862;47.732;7.346;2023-09-30T11:54:46;98978.92;;;25.36;82.02
71996;BME280;59862;47.732;7.346;2023-09-30T11:57:12;98981.27;;;25.88;68.37
71996;BME280;59862;47.732;7.346;2023-09-30T11:59:44;98977.34;;;26.32;73.82
71996;BME280;59862;47.732;7.346;2023-09-30T12:02:13;98975.02;;;25.97;70.13
71996;BME280;59862;47.732;7.346;2023-09-30T12:04:46;98967.17;;;26.33;66.55
71996;BME280;59862;47.732;7.346;2023-09-30T12:07:16;98960.62;;;26.09;72.65
71996;BME280;59862;47.732;7.346;2023-09-30T12:09:44;98961.20;;;26.43;70.86
71996;BME280;59862;47.732;7.346;2023-09-30T12:12:11;98960.27;;;26.64;71.07
71996;BME280;59862;47.732;7.346;2023-09-30T12:14:40;98966.69;;;27.12;68.05
71996;BME280;59862;47.732;7.346;2023-09-30T12:17:08;98958.44;;;27.14;60.62
71996;BME280;59862;47.732;7.346;2023-09-30T12:19:40;98962.56;;;27.58;56.35
71996;BME280;59862;47.732;7.346;2023-09-30T12:22:08;98965.00;;;28.42;54.36
71996;BME280;59862;47.732;7.346;2023-09-30T12:24:36;98956.41;;;28.18;52.89
71996;BME280;59862;47.732;7.346;2023-09-30T12:27:04;98957.79;;;29.14;49.49
71996;BME280;59862;47.732;7.346;2023-09-30T12:29:31;98963.80;;;29.51;48.30
71996;BME280;59862;47.732;7.346;2023-09-30T12:31:59;98960.26;;;30.46;43.98
71996;BME280;59862;47.732;7.346;2023-09-30T12:34:27;98953.28;;;30.87;43.73
71996;BME280;59862;47.732;7.346;2023-09-30T12:36:55;98951.22;;;31.53;40.08
71996;BME280;59862;47.732;7.346;2023-09-30T12:39:26;98949.98;;;31.37;40.51
71996;BME280;59862;47.732;7.346;2023-09-30T12:41:55;98949.52;;;31.02;40.81
71996;BME280;59862;47.732;7.346;2023-09-30T12:44:23;98945.18;;;29.74;44.49
71996;BME280;59862;47.732;7.346;2023-09-30T12:46:50;98943.01;;;30.54;43.58
71996;BME280;59862;47.732;7.346;2023-09-30T12:49:18;98946.52;;;30.98;39.96
71996;BME280;59862;47.732;7.346;2023-09-30T12:51:46;98950.05;;;31.56;38.38
71996;BME280;59862;47.732;7.346;2023-09-30T12:54:14;98947.03;;;31.55;38.04
71996;BME280;59862;47.732;7.346;2023-09-30T12:56:43;98945.22;;;31.64;37.53
71996;BME280;59862;47.732;7.346;2023-09-30T12:59:11;98948.77;;;31.49;39.07
71996;BME280;59862;47.732;7.346;2023-09-30T13:01:38;98947.36;;;31.25;38.44
71996;BME280;59862;47.732;7.346;2023-09-30T13:04:06;98945.52;;;31.41;39.08
71996;BME280;59862;47.732;7.346;2023-09-30T13:06:34;98952.45;;;31.41;37.61
71996;BME280;59862;47.732;7.346;2023-09-30T13:09:02;98941.48;;;31.03;39.50
71996;BME280;59862;47.732;7.346;2023-09-30T13:11:34;98945.36;;;30.73;40.41
71996;BME280;59862;47.732;7.346;2023-09-30T13:14:01;98941.39;;;30.50;43.00
71996;BME280;59862;47.732;7.346;2023-09-30T13:16:30;98948.16;;;31.25;39.77
71996;BME280;59862;47.732;7.346;2023-09-30T13:18:57;98932.53;;;30.07;40.36
71996;BME280;59862;47.732;7.346;2023-09-30T13:21:25;98932.77;;;30.88;41.93
71996;BME280;59862;47.732;7.346;2023-09-30T13:23:52;98939.17;;;30.86;37.64
71996;BME280;59862;47.732;7.346;2023-09-30T13:26:20;98928.55;;;30.62;41.68
71996;BME280;59862;47.732;7.346;2023-09-30T13:28:47;98931.55;;;29.90;44.04
71996;BME280;59862;47.732;7.346;2023-09-30T13:31:15;98933.77;;;30.66;42.49
71996;BME280;59862;47.732;7.346;2023-09-30T13:33:43;98929.69;;;29.71;44.72
71996;BME280;59862;47.732;7.346;2023-09-30T13:36:10;98917.78;;;28.23;49.14
71996;BME280;59862;47.732;7.346;2023-09-30T13:38:38;98923.27;;;27.34;56.74
71996;BME280;59862;47.732;7.346;2023-09-30T13:41:05;98915.29;;;26.51;63.15
71996;BME280;59862;47.732;7.346;2023-09-30T13:43:33;98916.52;;;26.65;65.94
71996;BME280;59862;47.732;7.346;2023-09-30T13:46:04;98918.59;;;26.48;66.93
71996;BME280;59862;47.732;7.346;2023-09-30T13:48:35;98925.75;;;26.17;68.17
71996;BME280;59862;47.732;7.346;2023-09-30T13:51:07;98920.45;;;25.87;65.29
71996;BME280;59862;47.732;7.346;2023-09-30T13:53:35;98925.27;;;26.96;61.63
71996;BME280;59862;47.732;7.346;2023-09-30T13:56:03;98927.45;;;28.79;51.23
71996;BME280;59862;47.732;7.346;2023-09-30T13:58:31;98924.98;;;28.57;51.11
71996;BME280;59862;47.732;7.346;2023-09-30T14:00:58;98926.61;;;27.36;58.14
71996;BME280;59862;47.732;7.346;2023-09-30T14:03:26;98922.45;;;27.98;51.29
71996;BME280;59862;47.732;7.346;2023-09-30T14:05:55;98922.47;;;28.50;51.71
71996;BME280;59862;47.732;7.346;2023-09-30T14:08:25;98920.53;;;28.08;49.05
71996;BME280;59862;47.732;7.346;2023-09-30T14:10:53;98918.91;;;26.91;56.20
71996;BME280;59862;47.732;7.346;2023-09-30T14:13:20;98912.17;;;25.84;66.99
71996;BME280;59862;47.732;7.346;2023-09-30T14:15:47;98909.34;;;26.03;74.68
71996;BME280;59862;47.732;7.346;2023-09-30T14:18:15;98912.27;;;26.50;65.06
71996;BME280;59862;47.732;7.346;2023-09-30T14:20:43;98911.16;;;25.93;61.24
71996;BME280;59862;47.732;7.346;2023-09-30T14:23:11;98905.92;;;26.15;64.49
71996;BME280;59862;47.732;7.346;2023-09-30T14:25:39;98901.55;;;25.69;63.36
71996;BME280;59862;47.732;7.346;2023-09-30T14:28:07;98895.30;;;25.08;67.56
71996;BME280;59862;47.732;7.346;2023-09-30T14:30:35;98894.77;;;25.09;75.96
71996;BME280;59862;47.732;7.346;2023-09-30T14:33:03;98887.25;;;25.02;81.74
71996;BME280;59862;47.732;7.346;2023-09-30T14:35:32;98887.10;;;24.72;82.80
71996;BME280;59862;47.732;7.346;2023-09-30T14:38:00;98888.64;;;24.47;76.86
71996;BME280;59862;47.732;7.346;2023-09-30T14:40:29;98884.62;;;24.54;77.03
71996;BME280;59862;47.732;7.346;2023-09-30T14:42:56;98888.59;;;24.80;73.61
71996;BME280;59862;47.732;7.346;2023-09-30T14:45:24;98882.88;;;24.84;76.96
71996;BME280;59862;47.732;7.346;2023-09-30T14:47:51;98878.53;;;24.86;74.68
71996;BME280;59862;47.732;7.346;2023-09-30T14:50:19;98876.73;;;24.58;83.28
71996;BME280;59862;47.732;7.346;2023-09-30T14:52:47;98881.92;;;24.57;81.59
71996;BME280;59862;47.732;7.346;2023-09-30T14:55:15;98885.38;;;24.50;73.27
71996;BME280;59862;47.732;7.346;2023-09-30T14:57:43;98878.73;;;24.46;73.59
71996;BME280;59862;47.732;7.346;2023-09-30T15:00:12;98876.39;;;24.54;77.64
71996;BME280;59862;47.732;7.346;2023-09-30T15:02:39;98871.03;;;24.45;83.40
71996;BME280;59862;47.732;7.346;2023-09-30T15:05:07;98874.25;;;24.40;92.04
71996;BME280;59862;47.732;7.346;2023-09-30T15:07:35;98878.55;;;24.17;79.31
71996;BME280;59862;47.732;7.346;2023-09-30T15:10:06;98880.44;;;24.02;80.97
71996;BME280;59862;47.732;7.346;2023-09-30T15:12:34;98880.75;;;24.03;96.96
71996;BME280;59862;47.732;7.346;2023-09-30T15:15:02;98877.16;;;23.86;96.28
71996;BME280;59862;47.732;7.346;2023-09-30T15:17:30;98877.53;;;23.92;96.91
71996;BME280;59862;47.732;7.346;2023-09-30T15:19:59;98882.90;;;23.84;92.71
71996;BME280;59862;47.732;7.346;2023-09-30T15:22:27;98877.17;;;24.02;95.10
71996;BME280;59862;47.732;7.346;2023-09-30T15:24:54;98877.69;;;23.85;84.93
71996;BME280;59862;47.732;7.346;2023-09-30T15:27:22;98878.05;;;23.61;90.06
71996;BME280;59862;47.732;7.346;2023-09-30T15:29:51;98872.59;;;23.47;93.54
71996;BME280;59862;47.732;7.346;2023-09-30T15:32:19;98888.16;;;23.32;84.35
71996;BME280;59862;47.732;7.346;2023-09-30T15:34:48;98874.94;;;23.41;96.30
71996;BME280;59862;47.732;7.346;2023-09-30T15:37:15;98878.47;;;23.27;91.09
71996;BME280;59862;47.732;7.346;2023-09-30T15:39:43;98877.30;;;23.34;84.39
71996;BME280;59862;47.732;7.346;2023-09-30T15:42:13;98871.05;;;23.13;94.51
71996;BME280;59862;47.732;7.346;2023-09-30T15:44:41;98881.95;;;23.11;87.89
71996;BME280;59862;47.732;7.346;2023-09-30T15:47:09;98878.36;;;22.96;92.05
71996;BME280;59862;47.732;7.346;2023-09-30T15:49:37;98878.75;;;22.77;100.00
71996;BME280;59862;47.732;7.346;2023-09-30T15:52:04;98880.44;;;22.66;100.00
71996;BME280;59862;47.732;7.346;2023-09-30T15:54:32;98879.65;;;22.56;100.00
71996;BME280;59862;47.732;7.346;2023-09-30T15:57:00;98877.44;;;22.44;100.00
71996;BME280;59862;47.732;7.346;2023-09-30T15:59:28;98877.48;;;22.35;100.00
71996;BME280;59862;47.732;7.346;2023-09-30T16:01:55;98876.31;;;22.20;100.00
71996;BME280;59862;47.732;7.346;2023-09-30T16:04:23;98875.73;;;21.97;100.00
71996;BME280;59862;47.732;7.346;2023-09-30T16:06:50;98875.48;;;21.87;100.00
71996;BME280;59862;47.732;7.346;2023-09-30T16:09:17;98882.77;;;21.84;100.00
71996;BME280;59862;47.732;7.346;2023-09-30T16:11:45;98882.94;;;21.71;100.00
71996;BME280;59862;47.732;7.346;2023-09-30T16:14:14;98885.24;;;21.65;100.00
71996;BME280;59862;47.732;7.346;2023-09-30T16:16:42;98884.64;;;21.63;100.00
71996;BME280;59862;47.732;7.346;2023-09-30T16:19:09;98889.21;;;21.51;100.00
71996;BME280;59862;47.732;7.346;2023-09-30T16:21:36;98883.31;;;21.45;100.00
71996;BME280;59862;47.732;7.346;2023-09-30T16:24:04;98886.22;;;21.41;100.00
71996;BME280;59862;47.732;7.346;2023-09-30T16:26:32;98897.47;;;21.14;100.00
71996;BME280;59862;47.732;7.346;2023-09-30T16:28:59;98896.43;;;21.06;100.00
71996;BME280;59862;47.732;7.346;2023-09-30T16:31:27;98897.30;;;20.82;100.00
71996;BME280;59862;47.732;7.346;2023-09-30T16:33:54;98900.62;;;20.75;100.00
71996;BME280;59862;47.732;7.346;2023-09-30T16:36:23;98904.11;;;20.55;100.00
71996;BME280;59862;47.732;7.346;2023-09-30T16:38:50;98898.66;;;20.55;100.00
71996;BME280;59862;47.732;7.346;2023-09-30T16:41:18;98903.27;;;20.55;100.00
71996;BME280;59862;47.732;7.346;2023-09-30T16:43:45;98901.17;;;20.32;100.00
71996;BME280;59862;47.732;7.346;2023-09-30T16:46:12;98895.11;;;20.30;100.00
71996;BME280;59862;47.732;7.346;2023-09-30T16:48:40;98900.70;;;20.10;100.00
71996;BME280;59862;47.732;7.346;2023-09-30T16:51:10;98902.25;;;20.00;100.00
71996;BME280;59862;47.732;7.346;2023-09-30T16:53:39;98906.89;;;19.84;100.00
71996;BME280;59862;47.732;7.346;2023-09-30T16:56:06;98906.19;;;19.79;100.00
71996;BME280;59862;47.732;7.346;2023-09-30T16:58:34;98909.56;;;19.75;100.00
71996;BME280;59862;47.732;7.346;2023-09-30T17:01:01;98914.03;;;19.62;100.00
71996;BME280;59862;47.732;7.346;2023-09-30T17:03:29;98913.58;;;19.50;100.00
71996;BME280;59862;47.732;7.346;2023-09-30T17:05:56;98913.10;;;19.44;100.00
71996;BME280;59862;47.732;7.346;2023-09-30T17:08:24;98918.60;;;19.24;100.00
71996;BME280;59862;47.732;7.346;2023-09-30T17:10:51;98922.48;;;19.19;100.00
71996;BME280;59862;47.732;7.346;2023-09-30T17:13:20;98923.61;;;19.05;100.00
71996;BME280;59862;47.732;7.346;2023-09-30T17:15:48;98920.20;;;18.87;100.00
71996;BME280;59862;47.732;7.346;2023-09-30T17:18:15;98923.36;;;18.78;100.00
71996;BME280;59862;47.732;7.346;2023-09-30T17:20:43;98926.22;;;18.61;100.00
71996;BME280;59862;47.732;7.346;2023-09-30T17:23:14;98927.18;;;18.57;100.00
71996;BME280;59862;47.732;7.346;2023-09-30T17:25:42;98933.87;;;18.55;100.00
71996;BME280;59862;47.732;7.346;2023-09-30T17:28:09;98931.13;;;18.42;100.00
71996;BME280;59862;47.732;7.346;2023-09-30T17:30:37;98924.45;;;18.31;100.00
71996;BME280;59862;47.732;7.346;2023-09-30T17:33:05;98928.64;;;18.07;100.00
71996;BME280;59862;47.732;7.346;2023-09-30T17:35:39;98930.95;;;18.04;100.00
71996;BME280;59862;47.732;7.346;2023-09-30T17:38:07;98929.59;;;17.97;100.00
71996;BME280;59862;47.732;7.346;2023-09-30T17:40:35;98930.39;;;17.91;100.00
71996;BME280;59862;47.732;7.346;2023-09-30T17:43:04;98928.22;;;17.84;100.00
71996;BME280;59862;47.732;7.346;2023-09-30T17:45:31;98923.79;;;17.70;100.00
71996;BME280;59862;47.732;7.346;2023-09-30T17:47:59;98920.95;;;17.61;100.00
71996;BME280;59862;47.732;7.346;2023-09-30T17:50:27;98918.03;;;17.56;100.00
71996;BME280;59862;47.732;7.346;2023-09-30T17:52:54;98914.25;;;17.51;100.00
71996;BME280;59862;47.732;7.346;2023-09-30T17:55:22;98914.16;;;17.31;100.00
71996;BME280;59862;47.732;7.346;2023-09-30T17:57:49;98919.53;;;17.18;100.00
71996;BME280;59862;47.732;7.346;2023-09-30T18:00:17;98926.50;;;17.10;100.00
71996;BME280;59862;47.732;7.346;2023-09-30T18:02:45;98926.80;;;17.04;100.00
71996;BME280;59862;47.732;7.346;2023-09-30T18:05:12;98930.86;;;17.11;100.00
71996;BME280;59862;47.732;7.346;2023-09-30T18:07:39;98924.42;;;17.12;100.00
71996;BME280;59862;47.732;7.346;2023-09-30T18:10:08;98917.84;;;17.10;100.00
71996;BME280;59862;47.732;7.346;2023-09-30T18:12:35;98922.52;;;17.06;100.00
71996;BME280;59862;47.732;7.346;2023-09-30T18:15:03;98919.83;;;16.89;100.00
71996;BME280;59862;47.732;7.346;2023-09-30T18:17:31;98930.55;;;16.86;100.00
71996;BME280;59862;47.732;7.346;2023-09-30T18:19:58;98925.19;;;16.76;100.00
71996;BME280;59862;47.732;7.346;2023-09-30T18:22:25;98924.73;;;16.72;100.00
71996;BME280;59862;47.732;7.346;2023-09-30T18:24:53;98924.55;;;16.74;100.00
71996;BME280;59862;47.732;7.346;2023-09-30T18:27:20;98929.84;;;16.71;100.00
71996;BME280;59862;47.732;7.346;2023-09-30T18:29:48;98936.88;;;16.65;100.00
71996;BME280;59862;47.732;7.346;2023-09-30T18:32:15;98938.02;;;16.60;100.00
71996;BME280;59862;47.732;7.346;2023-09-30T18:34:42;98941.63;;;16.57;100.00
71996;BME280;59862;47.732;7.346;2023-09-30T18:37:10;98943.82;;;16.57;100.00
71996;BME280;59862;47.732;7.346;2023-09-30T18:39:37;98941.32;;;16.56;100.00
71996;BME280;59862;47.732;7.346;2023-09-30T18:42:05;98942.55;;;16.53;100.00
71996;BME280;59862;47.732;7.346;2023-09-30T18:44:34;98953.26;;;16.40;100.00
71996;BME280;59862;47.732;7.346;2023-09-30T18:47:02;98947.79;;;16.34;100.00
71996;BME280;59862;47.732;7.346;2023-09-30T18:49:30;98950.12;;;16.37;100.00
71996;BME280;59862;47.732;7.346;2023-09-30T18:51:58;98951.80;;;16.27;100.00
71996;BME280;59862;47.732;7.346;2023-09-30T18:54:29;98945.80;;;16.32;100.00
71996;BME280;59862;47.732;7.346;2023-09-30T18:56:57;98947.02;;;16.29;100.00
71996;BME280;59862;47.732;7.346;2023-09-30T18:59:25;98949.30;;;16.26;100.00
71996;BME280;59862;47.732;7.346;2023-09-30T19:01:53;98949.88;;;16.21;100.00
71996;BME280;59862;47.732;7.346;2023-09-30T19:04:20;98950.19;;;16.22;100.00
71996;BME280;59862;47.732;7.346;2023-09-30T19:06:48;98956.14;;;16.22;100.00
71996;BME280;59862;47.732;7.346;2023-09-30T19:09:15;98960.15;;;16.15;100.00
71996;BME280;59862;47.732;7.346;2023-09-30T19:11:43;98961.43;;;16.19;100.00
71996;BME280;59862;47.732;7.346;2023-09-30T19:14:12;98958.39;;;16.18;100.00
71996;BME280;59862;47.732;7.346;2023-09-30T19:16:40;98959.17;;;16.12;100.00
71996;BME280;59862;47.732;7.346;2023-09-30T19:19:09;98964.28;;;16.11;100.00
71996;BME280;59862;47.732;7.346;2023-09-30T19:21:37;98970.15;;;16.04;100.00
71996;BME280;59862;47.732;7.346;2023-09-30T19:24:05;98966.80;;;16.02;100.00
71996;BME280;59862;47.732;7.346;2023-09-30T19:26:32;98974.21;;;16.04;100.00
71996;BME280;59862;47.732;7.346;2023-09-30T19:29:00;98977.09;;;15.92;100.00
71996;BME280;59862;47.732;7.346;2023-09-30T19:31:28;98974.32;;;15.96;100.00
71996;BME280;59862;47.732;7.346;2023-09-30T19:33:56;98971.68;;;15.92;100.00
71996;BME280;59862;47.732;7.346;2023-09-30T19:36:24;98980.58;;;15.97;100.00
71996;BME280;59862;47.732;7.346;2023-09-30T19:38:52;98975.03;;;15.94;100.00
71996;BME280;59862;47.732;7.346;2023-09-30T19:41:19;98976.86;;;15.87;100.00
71996;BME280;59862;47.732;7.346;2023-09-30T19:43:48;98976.92;;;15.83;100.00
71996;BME280;59862;47.732;7.346;2023-09-30T19:46:16;98977.67;;;15.87;100.00
71996;BME280;59862;47.732;7.346;2023-09-30T19:48:44;98980.85;;;15.91;100.00
71996;BME280;59862;47.732;7.346;2023-09-30T19:51:11;98981.16;;;15.92;100.00
71996;BME280;59862;47.732;7.346;2023-09-30T19:53:41;98983.55;;;15.91;100.00
71996;BME280;59862;47.732;7.346;2023-09-30T19:56:09;98981.93;;;15.97;100.00
71996;BME280;59862;47.732;7.346;2023-09-30T19:58:37;98984.70;;;15.92;100.00
71996;BME280;59862;47.732;7.346;2023-09-30T20:01:10;98987.92;;;15.92;100.00
71996;BME280;59862;47.732;7.346;2023-09-30T20:03:38;98988.56;;;15.94;100.00
71996;BME280;59862;47.732;7.346;2023-09-30T20:06:19;98987.21;;;15.94;100.00
71996;BME280;59862;47.732;7.346;2023-09-30T20:08:48;98991.27;;;15.94;100.00
71996;BME280;59862;47.732;7.346;2023-09-30T20:11:24;98986.91;;;15.93;100.00
71996;BME280;59862;47.732;7.346;2023-09-30T20:13:58;98986.98;;;15.89;100.00
71996;BME280;59862;47.732;7.346;2023-09-30T20:16:27;98987.69;;;15.87;100.00
71996;BME280;59862;47.732;7.346;2023-09-30T20:18:55;98993.98;;;15.83;100.00
71996;BME280;59862;47.732;7.346;2023-09-30T20:21:23;98991.73;;;15.76;100.00
71996;BME280;59862;47.732;7.346;2023-09-30T20:23:51;98986.50;;;15.75;100.00
71996;BME280;59862;47.732;7.346;2023-09-30T20:26:20;98986.36;;;15.72;100.00
71996;BME280;59862;47.732;7.346;2023-09-30T20:28:52;98982.77;;;15.65;100.00
71996;BME280;59862;47.732;7.346;2023-09-30T20:31:20;98983.92;;;15.67;100.00
71996;BME280;59862;47.732;7.346;2023-09-30T20:33:48;98991.03;;;15.68;100.00
71996;BME280;59862;47.732;7.346;2023-09-30T20:36:15;98981.48;;;15.61;100.00
71996;BME280;59862;47.732;7.346;2023-09-30T20:38:43;98988.81;;;15.57;100.00
71996;BME280;59862;47.732;7.346;2023-09-30T20:41:11;98990.91;;;15.51;100.00
71996;BME280;59862;47.732;7.346;2023-09-30T20:43:40;98993.70;;;15.43;100.00
71996;BME280;59862;47.732;7.346;2023-09-30T20:46:08;98993.11;;;15.37;100.00
71996;BME280;59862;47.732;7.346;2023-09-30T20:48:38;98991.70;;;15.41;100.00
71996;BME280;59862;47.732;7.346;2023-09-30T20:51:06;98986.49;;;15.39;100.00
71996;BME280;59862;47.732;7.346;2023-09-30T20:53:34;98983.14;;;15.37;100.00
71996;BME280;59862;47.732;7.346;2023-09-30T20:56:04;98983.98;;;15.23;100.00
71996;BME280;59862;47.732;7.346;2023-09-30T20:58:32;98986.89;;;15.22;100.00
71996;BME280;59862;47.732;7.346;2023-09-30T21:01:04;98993.66;;;15.22;100.00
71996;BME280;59862;47.732;7.346;2023-09-30T21:03:30;98998.18;;;15.10;100.00
71996;BME280;59862;47.732;7.346;2023-09-30T21:06:07;99003.92;;;15.11;100.00
71996;BME280;59862;47.732;7.346;2023-09-30T21:08:33;99000.88;;;15.10;100.00
71996;BME280;59862;47.732;7.346;2023-09-30T21:11:08;99003.69;;;15.02;100.00
71996;BME280;59862;47.732;7.346;2023-09-30T21:13:32;99000.59;;;15.05;100.00
71996;BME280;59862;47.732;7.346;2023-09-30T21:16:04;99008.81;;;14.97;100.00
71996;BME280;59862;47.732;7.346;2023-09-30T21:18:31;99009.85;;;14.96;100.00
71996;BME280;59862;47.732;7.346;2023-09-30T21:21:00;99006.86;;;14.91;100.00
71996;BME280;59862;47.732;7.346;2023-09-30T21:23:28;99008.91;;;14.89;100.00
71996;BME280;59862;47.732;7.346;2023-09-30T21:25:56;99001.11;;;14.90;100.00
71996;BME280;59862;47.732;7.346;2023-09-30T21:28:23;98998.75;;;14.91;100.00
71996;BME280;59862;47.732;7.346;2023-09-30T21:30:50;99001.95;;;14.91;100.00
71996;BME280;59862;47.732;7.346;2023-09-30T21:33:18;98995.30;;;14.83;100.00
71996;BME280;59862;47.732;7.346;2023-09-30T21:35:54;99005.52;;;14.73;100.00
71996;BME280;59862;47.732;7.346;2023-09-30T21:38:22;99007.27;;;14.70;100.00
71996;BME280;59862;47.732;7.346;2023-09-30T21:40:50;99008.13;;;14.66;100.00